createdAt,value
2017-09-19T00:00:47.583Z,6.07
2017-09-19T00:03:23.447Z,5.53
2017-09-19T00:05:56.794Z,5.80
2017-09-19T00:08:29.906Z,5.90
2017-09-19T00:11:02.867Z,6.60
2017-09-19T00:13:36.351Z,5.30
2017-09-19T00:16:10.210Z,5.50
2017-09-19T00:18:45.165Z,5.63
2017-09-19T00:21:17.831Z,5.70
2017-09-19T00:23:52.252Z,6.13
2017-09-19T00:26:24.560Z,6.03
2017-09-19T00:28:58.955Z,5.60
2017-09-19T00:31:31.559Z,5.93
2017-09-19T00:34:04.224Z,6.20
2017-09-19T00:36:37.786Z,6.07
2017-09-19T00:39:11.899Z,6.30
2017-09-19T00:41:43.640Z,6.60
2017-09-19T00:44:18.530Z,5.87
2017-09-19T00:46:51.330Z,6.13
2017-09-19T00:49:26.914Z,5.90
2017-09-19T00:52:03.505Z,6.30
2017-09-19T00:54:37.016Z,5.63
2017-09-19T00:57:10.320Z,6.40
2017-09-19T00:59:42.502Z,5.70
2017-09-19T01:02:15.195Z,6.70
2017-09-19T01:04:48.557Z,5.07
2017-09-19T01:07:20.409Z,5.43
2017-09-19T01:09:51.752Z,5.33
2017-09-19T01:12:24.154Z,6.20
2017-09-19T01:14:55.588Z,6.23
2017-09-19T01:17:30.438Z,6.13
2017-09-19T01:20:02.302Z,5.40
2017-09-19T01:25:13.372Z,6.33
2017-09-19T01:27:47.189Z,5.43
2017-09-19T01:30:17.930Z,5.40
2017-09-19T01:32:49.750Z,5.60
2017-09-19T01:35:23.969Z,4.57
2017-09-19T01:37:55.103Z,5.73
2017-09-19T01:40:28.211Z,5.10
2017-09-19T01:43:01.402Z,5.30
2017-09-19T01:45:34.700Z,6.20
2017-09-19T01:48:09.291Z,4.90
2017-09-19T01:50:42.038Z,5.60
2017-09-19T01:53:15.319Z,5.33
2017-09-19T01:55:48.786Z,5.60
2017-09-19T01:58:22.592Z,4.97
2017-09-19T02:00:57.189Z,5.27
2017-09-19T02:03:29.573Z,5.40
2017-09-19T02:06:00.216Z,4.73
2017-09-19T02:08:31.796Z,5.37
2017-09-19T02:11:06.094Z,5.83
2017-09-19T02:13:38.356Z,5.53
2017-09-19T02:16:10.510Z,5.13
2017-09-19T02:18:43.925Z,5.17
2017-09-19T02:21:16.611Z,5.20
2017-09-19T02:23:49.218Z,4.60
2017-09-19T02:26:22.311Z,5.63
2017-09-19T02:28:54.982Z,6.20
2017-09-19T02:31:27.337Z,5.70
2017-09-19T02:33:59.700Z,5.60
2017-09-19T02:36:32.883Z,6.33
2017-09-19T02:39:05.362Z,5.07
2017-09-19T02:41:38.815Z,5.60
2017-09-19T02:44:13.890Z,5.00
2017-09-19T02:46:46.655Z,5.40
2017-09-19T02:49:19.731Z,4.93
2017-09-19T02:51:51.332Z,4.67
2017-09-19T02:54:22.964Z,4.57
2017-09-19T02:56:55.517Z,5.23
2017-09-19T02:59:29.709Z,5.10
2017-09-19T03:02:02.291Z,4.50
2017-09-19T03:04:32.708Z,4.97
2017-09-19T03:07:05.585Z,5.27
2017-09-19T03:09:40.964Z,4.87
2017-09-19T03:12:14.028Z,5.30
2017-09-19T03:14:47.558Z,4.73
2017-09-19T03:17:19.714Z,5.43
2017-09-19T03:19:53.460Z,5.37
2017-09-19T03:22:27.453Z,5.57
2017-09-19T03:25:00.785Z,5.53
2017-09-19T03:27:32.350Z,5.50
2017-09-19T03:30:05.264Z,5.90
2017-09-19T03:32:37.892Z,5.20
2017-09-19T03:35:09.214Z,6.10
2017-09-19T03:37:41.068Z,5.80
2017-09-19T03:40:18.554Z,5.60
2017-09-19T03:42:53.618Z,5.07
2017-09-19T03:45:25.326Z,5.33
2017-09-19T03:47:57.751Z,5.87
2017-09-19T03:50:29.670Z,5.53
2017-09-19T03:53:01.864Z,6.10
2017-09-19T03:55:35.243Z,5.60
2017-09-19T03:58:06.383Z,4.63
2017-09-19T04:00:40.049Z,5.80
2017-09-19T04:03:12.475Z,5.63
2017-09-19T04:05:45.082Z,5.00
2017-09-19T04:08:19.890Z,6.37
2017-09-19T04:10:53.605Z,5.07
2017-09-19T04:13:25.244Z,5.80
2017-09-19T04:16:01.853Z,5.63
2017-09-19T04:18:36.698Z,5.20
2017-09-19T04:21:09.389Z,5.43
2017-09-19T04:23:45.301Z,5.63
2017-09-19T04:26:19.114Z,5.70
2017-09-19T04:28:49.276Z,5.40
2017-09-19T04:31:22.795Z,5.50
2017-09-19T04:33:54.955Z,5.90
2017-09-19T04:36:28.056Z,5.03
2017-09-19T04:38:58.915Z,5.30
2017-09-19T04:41:37.860Z,5.97
2017-09-19T04:44:22.098Z,5.23
2017-09-19T04:46:58.232Z,6.33
2017-09-19T04:49:28.410Z,5.50
2017-09-19T04:51:59.070Z,6.80
2017-09-19T04:54:30.605Z,6.30
2017-09-19T04:57:19.226Z,6.73
2017-09-19T05:00:06.076Z,6.07
2017-09-19T05:02:36.811Z,6.70
2017-09-19T05:05:06.658Z,6.33
2017-09-19T05:07:36.588Z,6.27
2017-09-19T05:10:12.873Z,7.50
2017-09-19T05:12:48.102Z,7.23
2017-09-19T05:15:19.470Z,6.40
2017-09-19T05:17:53.648Z,7.70
2017-09-19T05:20:23.501Z,7.80
2017-09-19T05:22:55.553Z,7.70
2017-09-19T05:25:28.370Z,6.60
2017-09-19T05:28:01.821Z,7.77
2017-09-19T05:30:35.054Z,8.60
2017-09-19T05:33:06.491Z,7.80
2017-09-19T05:35:39.531Z,8.50
2017-09-19T05:38:13.665Z,8.20
2017-09-19T05:40:47.230Z,7.57
2017-09-19T05:43:20.273Z,8.40
2017-09-19T05:45:52.637Z,8.17
2017-09-19T05:48:25.440Z,9.37
2017-09-19T05:50:58.073Z,9.47
2017-09-19T05:53:31.188Z,9.73
2017-09-19T05:56:04.361Z,9.63
2017-09-19T05:58:36.136Z,9.47
2017-09-19T06:01:06.745Z,11.63
2017-09-19T06:03:39.552Z,10.20
2017-09-19T06:06:13.587Z,10.43
2017-09-19T06:08:54.953Z,10.20
2017-09-19T06:11:28.926Z,10.43
2017-09-19T06:14:01.858Z,11.43
2017-09-19T06:16:34.490Z,9.10
2017-09-19T06:19:06.185Z,9.47
2017-09-19T06:21:39.196Z,11.27
2017-09-19T06:24:11.811Z,11.27
2017-09-19T06:26:43.924Z,11.20
2017-09-19T06:29:15.476Z,12.60
2017-09-19T06:31:48.132Z,10.77
2017-09-19T06:34:20.919Z,9.93
2017-09-19T06:36:53.739Z,11.43
2017-09-19T06:39:35.664Z,10.60
2017-09-19T06:42:09.058Z,11.40
2017-09-19T06:44:40.277Z,11.00
2017-09-19T06:47:12.963Z,11.00
2017-09-19T06:49:45.564Z,10.67
2017-09-19T06:52:18.005Z,12.13
2017-09-19T06:54:49.973Z,11.33
2017-09-19T06:57:22.746Z,13.50
2017-09-19T06:59:53.474Z,12.27
2017-09-19T07:02:25.945Z,12.20
2017-09-19T07:04:58.727Z,12.90
2017-09-19T07:07:31.050Z,14.50
2017-09-19T07:10:12.169Z,15.73
2017-09-19T07:12:44.657Z,15.03
2017-09-19T07:15:17.894Z,16.33
2017-09-19T07:17:48.683Z,16.60
2017-09-19T07:20:20.409Z,18.03
2017-09-19T07:22:52.913Z,16.10
2017-09-19T07:25:25.009Z,17.53
2017-09-19T07:28:01.757Z,20.10
2017-09-19T07:30:35.122Z,18.47
2017-09-19T07:33:07.511Z,17.53
2017-09-19T07:35:40.922Z,20.27
2017-09-19T07:38:15.792Z,18.60
2017-09-19T07:40:50.530Z,19.27
2017-09-19T07:43:26.502Z,19.57
2017-09-19T07:46:01.908Z,19.13
2017-09-19T07:48:41.077Z,18.17
2017-09-19T07:51:13.538Z,20.47
2017-09-19T07:53:46.281Z,19.93
2017-09-19T07:56:20.135Z,20.83
2017-09-19T07:58:52.238Z,20.80
2017-09-19T08:01:27.553Z,20.63
2017-09-19T08:03:58.065Z,22.17
2017-09-19T08:06:29.628Z,21.60
2017-09-19T08:09:02.162Z,22.43
2017-09-19T08:14:09.648Z,23.83
2017-09-19T08:16:41.164Z,24.10
2017-09-19T08:19:15.848Z,23.30
2017-09-19T08:21:49.274Z,24.77
2017-09-19T08:24:21.718Z,24.37
2017-09-19T08:26:53.703Z,25.10
2017-09-19T08:29:29.127Z,25.93
2017-09-19T08:34:55.378Z,27.13
2017-09-19T08:37:30.258Z,28.00
2017-09-19T08:40:02.402Z,28.03
2017-09-19T08:42:36.519Z,29.70
2017-09-19T08:45:08.733Z,29.67
2017-09-19T08:47:41.741Z,30.90
2017-09-19T08:50:15.274Z,30.13
2017-09-19T08:52:46.574Z,31.87
2017-09-19T08:55:19.480Z,31.50
2017-09-19T08:57:51.924Z,29.87
2017-09-19T09:00:24.722Z,32.40
2017-09-19T09:03:00.786Z,30.70
2017-09-19T09:05:35.395Z,30.30
2017-09-19T09:08:08.435Z,31.90
2017-09-19T09:10:40.213Z,30.90
2017-09-19T09:13:11.809Z,31.67
2017-09-19T09:15:43.959Z,33.67
2017-09-19T09:18:12.657Z,31.13
2017-09-19T09:20:47.117Z,31.67
2017-09-19T09:23:19.318Z,31.40
2017-09-19T09:25:52.030Z,32.27
2017-09-19T09:28:25.758Z,32.40
2017-09-19T09:30:58.558Z,32.30
2017-09-19T09:33:30.173Z,33.67
2017-09-19T09:36:02.256Z,32.87
2017-09-19T09:38:39.751Z,29.77
2017-09-19T09:41:11.328Z,33.80
2017-09-19T09:43:44.090Z,33.20
2017-09-19T09:46:21.952Z,32.57
2017-09-19T09:48:57.456Z,31.47
2017-09-19T09:51:29.071Z,32.27
2017-09-19T09:54:04.116Z,31.43
2017-09-19T09:56:37.647Z,30.80
2017-09-19T09:59:09.610Z,31.77
2017-09-19T10:01:41.669Z,31.97
2017-09-19T10:04:16.726Z,32.50
2017-09-19T10:06:52.752Z,32.53
2017-09-19T10:09:28.596Z,33.47
2017-09-19T10:12:00.150Z,32.47
2017-09-19T10:14:33.037Z,32.27
2017-09-19T10:17:07.215Z,30.67
2017-09-19T10:19:39.795Z,31.30
2017-09-19T10:22:14.356Z,31.63
2017-09-19T10:24:48.827Z,31.67
2017-09-19T10:27:21.624Z,29.60
2017-09-19T10:29:57.302Z,31.10
2017-09-19T10:32:31.091Z,30.10
2017-09-19T10:35:02.635Z,30.30
2017-09-19T10:37:37.688Z,27.67
2017-09-19T10:40:13.338Z,28.80
2017-09-19T10:42:49.349Z,27.90
2017-09-19T10:45:21.528Z,27.13
2017-09-19T10:47:55.562Z,28.00
2017-09-19T10:50:26.762Z,27.77
2017-09-19T10:53:01.517Z,27.20
2017-09-19T10:55:34.040Z,26.23
2017-09-19T10:58:06.404Z,28.87
2017-09-19T11:00:42.185Z,26.00
2017-09-19T11:03:17.233Z,26.13
2017-09-19T11:05:51.962Z,26.00
2017-09-19T11:08:25.937Z,25.53
2017-09-19T11:10:58.991Z,26.27
2017-09-19T11:13:32.723Z,26.40
2017-09-19T11:16:05.773Z,24.93
2017-09-19T11:18:37.769Z,26.00
2017-09-19T11:21:18.375Z,25.27
2017-09-19T11:23:51.141Z,23.87
2017-09-19T11:26:22.127Z,24.50
2017-09-19T11:28:56.869Z,23.87
2017-09-19T11:31:29.455Z,24.47
2017-09-19T11:34:01.420Z,22.93
2017-09-19T11:36:34.589Z,23.60
2017-09-19T11:39:08.242Z,24.17
2017-09-19T11:41:44.294Z,23.47
2017-09-19T11:44:16.537Z,23.60
2017-09-19T11:46:51.580Z,20.43
2017-09-19T11:49:23.392Z,21.80
2017-09-19T11:51:54.770Z,22.00
2017-09-19T11:54:29.961Z,21.30
2017-09-19T11:57:04.881Z,22.77
2017-09-19T11:59:39.253Z,20.10
2017-09-19T12:02:11.730Z,20.07
2017-09-19T12:04:44.360Z,19.17
2017-09-19T12:07:17.428Z,18.80
2017-09-19T12:09:49.272Z,16.90
2017-09-19T12:12:25.175Z,18.50
2017-09-19T12:15:01.893Z,19.53
2017-09-19T12:17:34.662Z,18.43
2017-09-19T12:20:06.824Z,22.50
2017-09-19T12:22:47.726Z,19.47
2017-09-19T12:25:20.843Z,17.90
2017-09-19T12:27:55.152Z,16.30
2017-09-19T12:30:27.433Z,14.30
2017-09-19T12:33:00.131Z,14.00
2017-09-19T12:35:34.056Z,14.77
2017-09-19T12:38:05.866Z,16.43
2017-09-19T12:40:38.204Z,14.73
2017-09-19T12:43:11.862Z,16.50
2017-09-19T12:45:43.313Z,16.27
2017-09-19T12:48:15.116Z,15.63
2017-09-19T12:50:49.382Z,14.87
2017-09-19T12:53:21.651Z,12.13
2017-09-19T12:55:54.873Z,12.07
2017-09-19T12:58:29.225Z,10.80
2017-09-19T13:01:00.823Z,11.67
2017-09-19T13:03:32.756Z,12.17
2017-09-19T13:06:06.101Z,10.77
2017-09-19T13:08:40.699Z,11.00
2017-09-19T13:11:13.502Z,10.27
2017-09-19T13:13:47.020Z,9.80
2017-09-19T13:16:22.503Z,8.47
2017-09-19T13:18:55.763Z,9.00
2017-09-19T13:24:04.949Z,8.17
2017-09-19T13:26:36.172Z,7.50
2017-09-19T13:29:09.017Z,8.23
2017-09-19T13:31:51.451Z,8.17
2017-09-19T13:34:24.117Z,7.50
2017-09-19T13:36:58.518Z,7.90
2017-09-19T13:39:31.598Z,7.27
2017-09-19T13:42:07.729Z,6.77
2017-09-19T13:44:42.108Z,6.00
2017-09-19T13:47:16.467Z,7.00
2017-09-19T13:49:48.406Z,5.80
2017-09-19T13:52:21.324Z,7.10
2017-09-19T13:54:57.467Z,6.37
2017-09-19T13:57:33.524Z,6.23
2017-09-19T14:00:06.645Z,5.40
2017-09-19T14:02:46.972Z,6.77
2017-09-19T14:05:18.708Z,6.47
2017-09-19T14:07:52.459Z,6.00
2017-09-19T14:10:27.858Z,5.77
2017-09-19T14:12:59.541Z,6.53
2017-09-19T14:15:31.931Z,7.50
2017-09-19T14:18:03.688Z,7.10
2017-09-19T14:20:37.556Z,7.23
2017-09-19T14:23:09.309Z,8.40
2017-09-19T14:25:41.949Z,7.70
2017-09-19T14:28:14.802Z,6.77
2017-09-19T14:30:49.036Z,6.57
2017-09-19T14:33:26.291Z,4.70
2017-09-19T14:36:00.510Z,4.20
2017-09-19T14:38:32.437Z,4.37
2017-09-19T14:41:05.894Z,4.10
2017-09-19T14:43:39.152Z,5.03
2017-09-19T14:46:14.231Z,4.93
2017-09-19T14:48:46.206Z,5.13
2017-09-19T14:51:18.889Z,5.43
2017-09-19T14:53:51.593Z,5.17
2017-09-19T14:56:25.916Z,5.33
2017-09-19T14:58:58.230Z,4.87
2017-09-19T15:01:31.024Z,5.03
2017-09-19T15:04:05.818Z,4.80
2017-09-19T15:06:40.738Z,5.10
2017-09-19T15:09:16.072Z,3.87
2017-09-19T15:11:48.179Z,3.10
2017-09-19T15:14:21.105Z,3.23
2017-09-19T15:16:52.759Z,2.60
2017-09-19T15:19:24.666Z,2.33
2017-09-19T15:22:12.327Z,2.03
2017-09-19T15:24:45.355Z,2.20
2017-09-19T15:27:16.058Z,2.60
2017-09-19T15:29:47.669Z,2.40
2017-09-19T15:32:17.743Z,2.80
2017-09-19T15:34:50.459Z,2.70
2017-09-19T15:37:29.356Z,2.70
2017-09-19T15:40:04.352Z,2.93
2017-09-19T15:42:34.629Z,2.90
2017-09-19T15:45:07.279Z,2.83
2017-09-19T15:47:41.193Z,2.83
2017-09-19T15:50:10.955Z,2.50
2017-09-19T15:52:43.175Z,2.90
2017-09-19T15:55:14.772Z,2.60
2017-09-19T15:57:57.444Z,2.17
2017-09-19T16:00:30.433Z,2.57
2017-09-19T16:03:03.230Z,2.70
2017-09-19T16:05:45.520Z,2.37
2017-09-19T16:08:20.562Z,2.50
2017-09-19T16:10:58.209Z,2.33
2017-09-19T16:13:41.272Z,3.90
2017-09-19T16:16:22.883Z,3.70
2017-09-19T16:19:01.844Z,4.00
2017-09-19T16:21:43.500Z,2.93
2017-09-19T16:24:24.825Z,2.70
2017-09-19T16:27:06.674Z,2.90
2017-09-19T16:29:49.431Z,2.77
2017-09-19T16:32:26.486Z,2.00
2017-09-19T16:35:04.686Z,2.63
2017-09-19T16:37:45.012Z,1.97
2017-09-19T16:40:29.054Z,1.90
2017-09-19T16:43:14.624Z,1.33
2017-09-19T16:51:33.720Z,0.87
2017-09-19T16:54:19.767Z,1.00
2017-09-19T16:57:05.265Z,0.60
2017-09-19T17:02:37.409Z,0.67
2017-09-19T17:05:20.659Z,0.80
2017-09-19T17:08:06.737Z,0.63
2017-09-19T17:10:53.198Z,0.70
2017-09-19T17:13:38.325Z,0.90
2017-09-19T17:16:24.396Z,0.70
2017-09-19T17:19:01.446Z,0.77
2017-09-19T17:24:33.101Z,0.80
2017-09-19T17:30:06.670Z,0.67
2017-09-19T17:32:51.383Z,1.00
2017-09-19T17:35:39.006Z,0.73
2017-09-19T17:38:17.667Z,0.90
2017-09-19T17:40:58.934Z,0.70
2017-09-19T17:43:38.894Z,1.03
2017-09-19T17:46:24.809Z,1.10
2017-09-19T17:49:13.609Z,0.80
2017-09-19T17:52:00.057Z,0.70
2017-09-19T17:54:43.281Z,0.90
2017-09-19T17:57:30.093Z,0.97
2017-09-19T18:00:14.065Z,0.80
2017-09-19T18:05:28.277Z,1.17
2017-09-19T18:08:14.189Z,1.50
2017-09-19T18:10:57.101Z,1.20
2017-09-19T18:13:30.793Z,1.20
2017-09-19T18:16:03.692Z,1.37
2017-09-19T18:21:26.072Z,1.10
2017-09-19T18:23:56.978Z,1.23
2017-09-19T18:26:30.473Z,1.20
2017-09-19T18:34:38.494Z,1.43
2017-09-19T18:37:11.725Z,0.90
2017-09-19T18:39:52.010Z,1.40
2017-09-19T18:42:30.321Z,1.50
2017-09-19T18:47:45.315Z,1.83
2017-09-19T18:50:18.350Z,1.47
2017-09-19T18:52:53.325Z,1.10
2017-09-19T18:55:27.019Z,1.23
2017-09-19T18:58:00.827Z,1.10
2017-09-19T19:00:30.768Z,0.80
2017-09-19T19:03:01.541Z,0.83
2017-09-19T19:05:32.431Z,0.70
2017-09-19T19:08:02.531Z,0.83
2017-09-19T19:10:44.275Z,1.00
2017-09-19T19:13:19.007Z,0.73
2017-09-19T19:15:51.659Z,1.00
2017-09-19T19:18:24.185Z,0.57
2017-09-19T19:20:55.042Z,1.07
2017-09-19T19:23:27.605Z,0.73
2017-09-19T19:25:58.876Z,0.80
2017-09-19T19:31:18.326Z,0.80
2017-09-19T19:33:49.253Z,0.80
2017-09-19T19:36:23.969Z,0.63
2017-09-19T19:39:00.088Z,0.70
2017-09-19T19:41:31.377Z,0.57
2017-09-19T19:44:05.832Z,0.50
2017-09-19T19:46:41.145Z,1.00
2017-09-19T19:49:28.522Z,0.70
2017-09-19T19:52:08.071Z,0.70
2017-09-19T19:54:50.946Z,0.73
2017-09-19T19:57:32.983Z,0.80
2017-09-19T20:00:13.746Z,0.70
2017-09-19T20:05:39.135Z,0.80
2017-09-19T20:08:13.959Z,0.80
2017-09-19T20:10:58.586Z,0.90
2017-09-19T20:13:42.923Z,0.80
2017-09-19T20:16:26.870Z,1.57
2017-09-19T20:19:10.796Z,0.90
2017-09-19T20:21:58.629Z,0.70
2017-09-19T20:24:47.690Z,1.10
2017-09-19T20:27:29.172Z,1.13
2017-09-19T20:33:08.221Z,1.20
2017-09-19T20:35:50.266Z,1.23
2017-09-19T20:38:36.291Z,1.23
2017-09-19T20:41:29.710Z,1.37
2017-09-19T20:49:51.163Z,1.10
2017-09-19T20:52:36.613Z,1.10
2017-09-19T20:55:21.896Z,0.90
2017-09-19T21:00:57.142Z,0.93
2017-09-19T21:03:45.634Z,0.93
2017-09-19T21:06:32.532Z,1.10
2017-09-19T21:09:20.468Z,1.47
2017-09-19T21:12:07.577Z,1.40
2017-09-19T21:14:54.988Z,0.97
2017-09-19T21:17:44.272Z,1.20
2017-09-19T21:20:24.874Z,1.00
2017-09-19T21:25:57.364Z,0.90
2017-09-19T21:28:40.710Z,0.93
2017-09-19T21:31:23.704Z,0.93
2017-09-19T21:34:07.265Z,0.97
2017-09-19T21:36:52.266Z,1.10
2017-09-19T21:42:27.080Z,0.90
2017-09-19T21:48:02.849Z,1.30
2017-09-19T21:50:49.059Z,0.90
2017-09-19T21:53:32.926Z,1.10
2017-09-19T21:56:15.619Z,1.10
2017-09-19T21:59:02.363Z,0.80
2017-09-19T22:01:46.697Z,0.90
2017-09-19T22:04:35.527Z,0.90
2017-09-19T22:07:20.615Z,1.20
2017-09-19T22:10:06.744Z,1.10
2017-09-19T22:12:51.677Z,1.20
2017-09-19T22:15:35.592Z,1.20
2017-09-19T22:18:21.990Z,0.90
2017-09-19T22:21:09.710Z,0.93
2017-09-19T22:23:52.612Z,0.70
2017-09-19T22:26:37.184Z,0.93
2017-09-19T22:29:20.548Z,1.00
2017-09-19T22:31:50.099Z,1.00
2017-09-19T22:34:18.875Z,0.80
2017-09-19T22:36:49.833Z,0.70
2017-09-19T22:39:20.456Z,0.93
2017-09-19T22:41:52.290Z,1.67
2017-09-19T22:44:24.109Z,0.90
2017-09-19T22:46:54.000Z,0.80
2017-09-19T22:49:25.502Z,1.10
2017-09-19T22:51:54.341Z,0.80
2017-09-19T22:54:23.518Z,1.40
2017-09-19T22:56:53.414Z,1.33
2017-09-19T22:59:24.738Z,1.10
2017-09-19T23:01:55.278Z,1.30
2017-09-19T23:04:24.732Z,0.83
2017-09-19T23:06:54.565Z,1.07
2017-09-19T23:09:23.857Z,1.13
2017-09-19T23:12:02.248Z,1.87
2017-09-19T23:14:36.211Z,1.70
2017-09-19T23:17:14.863Z,1.93
2017-09-19T23:19:45.950Z,1.83
2017-09-19T23:22:16.787Z,1.97
2017-09-19T23:24:48.610Z,2.80
2017-09-19T23:27:19.916Z,2.00
2017-09-19T23:29:51.026Z,1.87
2017-09-19T23:32:22.145Z,2.77
2017-09-19T23:34:53.159Z,2.50
2017-09-19T23:37:24.089Z,2.80
2017-09-19T23:39:54.694Z,2.20
2017-09-19T23:42:27.391Z,3.20
2017-09-19T23:44:57.560Z,2.70
2017-09-19T23:47:26.879Z,2.33
2017-09-19T23:49:56.933Z,3.00
2017-09-19T23:52:27.239Z,2.53
2017-09-19T23:54:58.020Z,2.47
2017-09-19T23:57:28.363Z,3.07
2017-09-19T23:59:59.568Z,2.90
